sensor_id;sensor_type;location;lat;lon;timestamp;P1;durP1;ratioP1;P2;durP2;ratioP2
4208;SDS011;36320;48.860;2.380;2022-09-03T00:00:07;9.20;;;2.20;;
4208;SDS011;36320;48.860;2.380;2022-09-03T00:02:37;9.82;;;2.30;;
4208;SDS011;36320;48.860;2.380;2022-09-03T00:05:15;8.60;;;2.35;;
4208;SDS011;36320;48.860;2.380;2022-09-03T00:07:53;14.70;;;2.80;;
4208;SDS011;36320;48.860;2.380;2022-09-03T00:10:28;8.95;;;2.10;;
4208;SDS011;36320;48.860;2.380;2022-09-03T00:13:02;8.98;;;2.20;;
4208;SDS011;36320;48.860;2.380;2022-09-03T00:15:31;9.60;;;2.05;;
4208;SDS011;36320;48.860;2.380;2022-09-03T00:18:03;9.18;;;2.05;;
4208;SDS011;36320;48.860;2.380;2022-09-03T00:20:43;8.95;;;2.20;;
4208;SDS011;36320;48.860;2.380;2022-09-03T00:23:13;9.20;;;2.00;;
4208;SDS011;36320;48.860;2.380;2022-09-03T00:25:44;9.33;;;2.20;;
4208;SDS011;36320;48.860;2.380;2022-09-03T00:28:32;8.43;;;1.80;;
4208;SDS011;36320;48.860;2.380;2022-09-03T00:31:10;8.70;;;1.90;;
4208;SDS011;36320;48.860;2.380;2022-09-03T00:33:45;13.15;;;2.03;;
4208;SDS011;36320;48.860;2.380;2022-09-03T00:36:14;8.55;;;1.98;;
4208;SDS011;36320;48.860;2.380;2022-09-03T00:38:47;10.80;;;1.80;;
4208;SDS011;36320;48.860;2.380;2022-09-03T00:49:35;8.25;;;1.98;;
4208;SDS011;36320;48.860;2.380;2022-09-03T00:52:33;10.00;;;2.10;;
4208;SDS011;36320;48.860;2.380;2022-09-03T01:00:50;8.30;;;1.60;;
4208;SDS011;36320;48.860;2.380;2022-09-03T01:14:32;8.30;;;2.00;;
4208;SDS011;36320;48.860;2.380;2022-09-03T01:17:07;8.17;;;1.67;;
4208;SDS011;36320;48.860;2.380;2022-09-03T01:20:32;8.40;;;1.50;;
4208;SDS011;36320;48.860;2.380;2022-09-03T01:25:53;7.63;;;1.60;;
4208;SDS011;36320;48.860;2.380;2022-09-03T01:33:50;8.30;;;1.50;;
4208;SDS011;36320;48.860;2.380;2022-09-03T01:39:13;8.60;;;1.70;;
4208;SDS011;36320;48.860;2.380;2022-09-03T01:47:37;9.63;;;1.70;;
4208;SDS011;36320;48.860;2.380;2022-09-03T01:59:22;10.10;;;1.60;;
4208;SDS011;36320;48.860;2.380;2022-09-03T02:02:11;8.20;;;1.70;;
4208;SDS011;36320;48.860;2.380;2022-09-03T02:04:54;8.10;;;1.75;;
4208;SDS011;36320;48.860;2.380;2022-09-03T02:10:11;8.70;;;1.73;;
4208;SDS011;36320;48.860;2.380;2022-09-03T02:12:40;7.97;;;1.75;;
4208;SDS011;36320;48.860;2.380;2022-09-03T02:15:11;9.45;;;2.10;;
4208;SDS011;36320;48.860;2.380;2022-09-03T02:17:40;9.00;;;1.90;;
4208;SDS011;36320;48.860;2.380;2022-09-03T02:20:09;8.00;;;1.80;;
4208;SDS011;36320;48.860;2.380;2022-09-03T02:22:40;7.28;;;1.50;;
4208;SDS011;36320;48.860;2.380;2022-09-03T02:25:07;8.20;;;1.85;;
4208;SDS011;36320;48.860;2.380;2022-09-03T02:27:35;10.60;;;1.90;;
4208;SDS011;36320;48.860;2.380;2022-09-03T02:30:02;12.23;;;1.90;;
4208;SDS011;36320;48.860;2.380;2022-09-03T02:32:28;8.10;;;1.80;;
4208;SDS011;36320;48.860;2.380;2022-09-03T02:34:55;8.80;;;1.70;;
4208;SDS011;36320;48.860;2.380;2022-09-03T02:37:21;8.30;;;2.00;;
4208;SDS011;36320;48.860;2.380;2022-09-03T02:39:47;9.13;;;2.10;;
4208;SDS011;36320;48.860;2.380;2022-09-03T02:42:13;9.87;;;2.00;;
4208;SDS011;36320;48.860;2.380;2022-09-03T02:44:43;8.10;;;2.10;;
4208;SDS011;36320;48.860;2.380;2022-09-03T02:47:19;8.00;;;1.80;;
4208;SDS011;36320;48.860;2.380;2022-09-03T02:49:46;8.10;;;1.90;;
4208;SDS011;36320;48.860;2.380;2022-09-03T02:52:13;9.45;;;1.90;;
4208;SDS011;36320;48.860;2.380;2022-09-03T02:54:39;8.48;;;1.90;;
4208;SDS011;36320;48.860;2.380;2022-09-03T02:57:06;8.95;;;2.03;;
4208;SDS011;36320;48.860;2.380;2022-09-03T02:59:33;9.20;;;2.13;;
4208;SDS011;36320;48.860;2.380;2022-09-03T03:02:01;10.20;;;2.00;;
4208;SDS011;36320;48.860;2.380;2022-09-03T03:04:29;9.60;;;2.07;;
4208;SDS011;36320;48.860;2.380;2022-09-03T03:06:56;8.53;;;2.13;;
4208;SDS011;36320;48.860;2.380;2022-09-03T03:09:22;10.00;;;2.17;;
4208;SDS011;36320;48.860;2.380;2022-09-03T03:11:48;9.90;;;2.20;;
4208;SDS011;36320;48.860;2.380;2022-09-03T03:14:15;9.63;;;2.33;;
4208;SDS011;36320;48.860;2.380;2022-09-03T03:16:42;9.65;;;2.35;;
4208;SDS011;36320;48.860;2.380;2022-09-03T03:19:08;10.23;;;2.87;;
4208;SDS011;36320;48.860;2.380;2022-09-03T03:21:34;10.02;;;2.60;;
4208;SDS011;36320;48.860;2.380;2022-09-03T03:24:00;11.00;;;2.20;;
4208;SDS011;36320;48.860;2.380;2022-09-03T03:26:27;9.77;;;2.50;;
4208;SDS011;36320;48.860;2.380;2022-09-03T03:28:56;8.38;;;2.38;;
4208;SDS011;36320;48.860;2.380;2022-09-03T03:31:24;11.38;;;2.30;;
4208;SDS011;36320;48.860;2.380;2022-09-03T03:33:55;9.57;;;2.80;;
4208;SDS011;36320;48.860;2.380;2022-09-03T03:36:23;10.70;;;2.70;;
4208;SDS011;36320;48.860;2.380;2022-09-03T03:38:54;8.77;;;2.30;;
4208;SDS011;36320;48.860;2.380;2022-09-03T03:41:22;10.40;;;2.60;;
4208;SDS011;36320;48.860;2.380;2022-09-03T03:43:53;9.40;;;2.50;;
4208;SDS011;36320;48.860;2.380;2022-09-03T03:46:21;9.73;;;2.72;;
4208;SDS011;36320;48.860;2.380;2022-09-03T03:48:48;10.38;;;2.60;;
4208;SDS011;36320;48.860;2.380;2022-09-03T03:51:15;9.80;;;2.30;;
4208;SDS011;36320;48.860;2.380;2022-09-03T03:53:41;9.85;;;2.33;;
4208;SDS011;36320;48.860;2.380;2022-09-03T03:56:08;12.57;;;3.15;;
4208;SDS011;36320;48.860;2.380;2022-09-03T03:58:36;11.27;;;2.60;;
4208;SDS011;36320;48.860;2.380;2022-09-03T04:01:08;11.65;;;2.67;;
4208;SDS011;36320;48.860;2.380;2022-09-03T04:03:35;9.73;;;2.80;;
4208;SDS011;36320;48.860;2.380;2022-09-03T04:06:03;9.77;;;2.40;;
4208;SDS011;36320;48.860;2.380;2022-09-03T04:08:30;10.57;;;2.20;;
4208;SDS011;36320;48.860;2.380;2022-09-03T04:11:03;10.02;;;3.05;;
4208;SDS011;36320;48.860;2.380;2022-09-03T04:13:31;8.77;;;2.20;;
4208;SDS011;36320;48.860;2.380;2022-09-03T04:16:05;9.32;;;2.40;;
4208;SDS011;36320;48.860;2.380;2022-09-03T04:18:36;9.93;;;2.58;;
4208;SDS011;36320;48.860;2.380;2022-09-03T04:21:04;10.40;;;2.30;;
4208;SDS011;36320;48.860;2.380;2022-09-03T04:23:31;8.75;;;2.13;;
4208;SDS011;36320;48.860;2.380;2022-09-03T04:26:01;9.02;;;2.38;;
4208;SDS011;36320;48.860;2.380;2022-09-03T04:28:27;9.93;;;2.33;;
4208;SDS011;36320;48.860;2.380;2022-09-03T04:30:53;8.90;;;2.33;;
4208;SDS011;36320;48.860;2.380;2022-09-03T04:33:24;8.68;;;2.47;;
4208;SDS011;36320;48.860;2.380;2022-09-03T04:35:50;10.43;;;2.20;;
4208;SDS011;36320;48.860;2.380;2022-09-03T04:38:15;12.18;;;2.90;;
4208;SDS011;36320;48.860;2.380;2022-09-03T04:40:41;9.80;;;2.60;;
4208;SDS011;36320;48.860;2.380;2022-09-03T04:43:07;11.77;;;2.75;;
4208;SDS011;36320;48.860;2.380;2022-09-03T04:45:33;9.20;;;2.10;;
4208;SDS011;36320;48.860;2.380;2022-09-03T04:47:59;12.43;;;2.40;;
4208;SDS011;36320;48.860;2.380;2022-09-03T04:50:29;11.50;;;2.40;;
4208;SDS011;36320;48.860;2.380;2022-09-03T04:53:00;9.10;;;2.30;;
4208;SDS011;36320;48.860;2.380;2022-09-03T04:55:31;8.68;;;2.30;;
4208;SDS011;36320;48.860;2.380;2022-09-03T04:58:02;9.20;;;2.30;;
4208;SDS011;36320;48.860;2.380;2022-09-03T05:00:29;11.60;;;2.70;;
4208;SDS011;36320;48.860;2.380;2022-09-03T05:02:54;16.33;;;2.13;;
4208;SDS011;36320;48.860;2.380;2022-09-03T05:05:23;10.70;;;2.13;;
4208;SDS011;36320;48.860;2.380;2022-09-03T05:07:49;10.52;;;2.00;;
4208;SDS011;36320;48.860;2.380;2022-09-03T05:10:15;9.27;;;2.42;;
4208;SDS011;36320;48.860;2.380;2022-09-03T05:12:44;11.00;;;2.47;;
4208;SDS011;36320;48.860;2.380;2022-09-03T05:15:12;13.23;;;2.55;;
4208;SDS011;36320;48.860;2.380;2022-09-03T05:17:38;9.18;;;2.38;;
4208;SDS011;36320;48.860;2.380;2022-09-03T05:20:04;10.32;;;2.22;;
4208;SDS011;36320;48.860;2.380;2022-09-03T05:22:34;8.70;;;2.40;;
4208;SDS011;36320;48.860;2.380;2022-09-03T05:24:59;10.18;;;2.30;;
4208;SDS011;36320;48.860;2.380;2022-09-03T05:27:25;9.75;;;2.42;;
4208;SDS011;36320;48.860;2.380;2022-09-03T05:29:51;9.23;;;2.50;;
4208;SDS011;36320;48.860;2.380;2022-09-03T05:32:16;9.17;;;2.43;;
4208;SDS011;36320;48.860;2.380;2022-09-03T05:34:42;9.03;;;2.30;;
4208;SDS011;36320;48.860;2.380;2022-09-03T05:37:08;8.70;;;2.35;;
4208;SDS011;36320;48.860;2.380;2022-09-03T05:39:35;9.18;;;2.30;;
4208;SDS011;36320;48.860;2.380;2022-09-03T05:42:01;9.40;;;2.20;;
4208;SDS011;36320;48.860;2.380;2022-09-03T05:44:27;8.97;;;2.37;;
4208;SDS011;36320;48.860;2.380;2022-09-03T05:46:53;8.90;;;2.60;;
4208;SDS011;36320;48.860;2.380;2022-09-03T05:49:19;9.87;;;2.50;;
4208;SDS011;36320;48.860;2.380;2022-09-03T05:51:44;9.93;;;2.27;;
4208;SDS011;36320;48.860;2.380;2022-09-03T05:54:10;9.30;;;2.50;;
4208;SDS011;36320;48.860;2.380;2022-09-03T05:56:37;9.27;;;2.30;;
4208;SDS011;36320;48.860;2.380;2022-09-03T05:59:05;14.30;;;2.60;;
4208;SDS011;36320;48.860;2.380;2022-09-03T06:01:34;12.05;;;2.40;;
4208;SDS011;36320;48.860;2.380;2022-09-03T06:04:02;9.40;;;2.30;;
4208;SDS011;36320;48.860;2.380;2022-09-03T06:06:32;11.98;;;2.53;;
4208;SDS011;36320;48.860;2.380;2022-09-03T06:09:00;9.60;;;2.47;;
4208;SDS011;36320;48.860;2.380;2022-09-03T06:11:28;10.57;;;2.10;;
4208;SDS011;36320;48.860;2.380;2022-09-03T06:13:57;11.13;;;3.13;;
4208;SDS011;36320;48.860;2.380;2022-09-03T06:16:25;9.75;;;2.47;;
4208;SDS011;36320;48.860;2.380;2022-09-03T06:18:52;10.13;;;2.70;;
4208;SDS011;36320;48.860;2.380;2022-09-03T06:21:18;11.23;;;2.60;;
4208;SDS011;36320;48.860;2.380;2022-09-03T06:23:48;8.90;;;2.20;;
4208;SDS011;36320;48.860;2.380;2022-09-03T06:26:15;11.07;;;2.73;;
4208;SDS011;36320;48.860;2.380;2022-09-03T06:28:42;8.90;;;2.50;;
4208;SDS011;36320;48.860;2.380;2022-09-03T06:31:09;10.38;;;2.60;;
4208;SDS011;36320;48.860;2.380;2022-09-03T06:33:37;10.37;;;3.03;;
4208;SDS011;36320;48.860;2.380;2022-09-03T06:36:05;9.50;;;2.60;;
4208;SDS011;36320;48.860;2.380;2022-09-03T06:38:33;11.30;;;2.60;;
4208;SDS011;36320;48.860;2.380;2022-09-03T06:41:01;10.63;;;3.20;;
4208;SDS011;36320;48.860;2.380;2022-09-03T06:43:31;15.50;;;2.85;;
4208;SDS011;36320;48.860;2.380;2022-09-03T06:45:59;11.05;;;2.58;;
4208;SDS011;36320;48.860;2.380;2022-09-03T06:48:28;10.48;;;2.78;;
4208;SDS011;36320;48.860;2.380;2022-09-03T06:50:56;8.50;;;2.30;;
4208;SDS011;36320;48.860;2.380;2022-09-03T06:53:25;11.25;;;3.13;;
4208;SDS011;36320;48.860;2.380;2022-09-03T06:55:56;19.33;;;2.80;;
4208;SDS011;36320;48.860;2.380;2022-09-03T06:58:23;9.70;;;2.60;;
4208;SDS011;36320;48.860;2.380;2022-09-03T07:00:59;10.02;;;2.40;;
4208;SDS011;36320;48.860;2.380;2022-09-03T07:03:29;10.63;;;2.43;;
4208;SDS011;36320;48.860;2.380;2022-09-03T07:05:59;8.60;;;2.50;;
4208;SDS011;36320;48.860;2.380;2022-09-03T07:08:27;10.30;;;2.50;;
4208;SDS011;36320;48.860;2.380;2022-09-03T07:10:54;10.48;;;3.20;;
4208;SDS011;36320;48.860;2.380;2022-09-03T07:13:20;14.23;;;2.83;;
4208;SDS011;36320;48.860;2.380;2022-09-03T07:15:46;12.50;;;2.60;;
4208;SDS011;36320;48.860;2.380;2022-09-03T07:18:12;9.90;;;2.93;;
4208;SDS011;36320;48.860;2.380;2022-09-03T07:20:37;9.05;;;2.50;;
4208;SDS011;36320;48.860;2.380;2022-09-03T07:23:03;12.43;;;2.85;;
4208;SDS011;36320;48.860;2.380;2022-09-03T07:25:29;8.63;;;2.20;;
4208;SDS011;36320;48.860;2.380;2022-09-03T07:27:55;10.52;;;2.40;;
4208;SDS011;36320;48.860;2.380;2022-09-03T07:30:22;10.05;;;2.20;;
4208;SDS011;36320;48.860;2.380;2022-09-03T07:32:49;10.33;;;2.60;;
4208;SDS011;36320;48.860;2.380;2022-09-03T07:35:15;8.82;;;2.30;;
4208;SDS011;36320;48.860;2.380;2022-09-03T07:37:43;11.82;;;2.60;;
4208;SDS011;36320;48.860;2.380;2022-09-03T07:40:09;10.30;;;2.40;;
4208;SDS011;36320;48.860;2.380;2022-09-03T07:42:38;9.50;;;2.40;;
4208;SDS011;36320;48.860;2.380;2022-09-03T07:45:07;9.90;;;2.40;;
4208;SDS011;36320;48.860;2.380;2022-09-03T07:47:36;8.60;;;2.10;;
4208;SDS011;36320;48.860;2.380;2022-09-03T07:50:02;8.57;;;2.30;;
4208;SDS011;36320;48.860;2.380;2022-09-03T07:52:29;8.90;;;2.40;;
4208;SDS011;36320;48.860;2.380;2022-09-03T07:54:57;13.88;;;1.95;;
4208;SDS011;36320;48.860;2.380;2022-09-03T07:57:24;9.27;;;2.30;;
4208;SDS011;36320;48.860;2.380;2022-09-03T07:59:51;10.60;;;3.25;;
4208;SDS011;36320;48.860;2.380;2022-09-03T08:02:17;9.50;;;2.33;;
4208;SDS011;36320;48.860;2.380;2022-09-03T08:04:43;9.73;;;2.60;;
4208;SDS011;36320;48.860;2.380;2022-09-03T08:07:09;15.88;;;2.63;;
4208;SDS011;36320;48.860;2.380;2022-09-03T08:09:35;12.32;;;2.70;;
4208;SDS011;36320;48.860;2.380;2022-09-03T08:12:02;9.02;;;2.45;;
4208;SDS011;36320;48.860;2.380;2022-09-03T08:14:28;8.98;;;2.30;;
4208;SDS011;36320;48.860;2.380;2022-09-03T08:16:55;8.30;;;2.00;;
4208;SDS011;36320;48.860;2.380;2022-09-03T08:19:21;8.00;;;1.93;;
4208;SDS011;36320;48.860;2.380;2022-09-03T08:21:47;9.00;;;2.10;;
4208;SDS011;36320;48.860;2.380;2022-09-03T08:24:14;8.85;;;2.35;;
4208;SDS011;36320;48.860;2.380;2022-09-03T08:26:41;14.23;;;2.83;;
4208;SDS011;36320;48.860;2.380;2022-09-03T08:29:07;10.40;;;1.90;;
4208;SDS011;36320;48.860;2.380;2022-09-03T08:31:35;7.72;;;1.90;;
4208;SDS011;36320;48.860;2.380;2022-09-03T08:34:01;7.35;;;1.50;;
4208;SDS011;36320;48.860;2.380;2022-09-03T08:36:30;10.10;;;2.10;;
4208;SDS011;36320;48.860;2.380;2022-09-03T08:38:59;7.90;;;1.70;;
4208;SDS011;36320;48.860;2.380;2022-09-03T08:41:36;9.80;;;1.90;;
4208;SDS011;36320;48.860;2.380;2022-09-03T08:47:04;7.47;;;1.70;;
4208;SDS011;36320;48.860;2.380;2022-09-03T08:54:48;7.47;;;1.80;;
4208;SDS011;36320;48.860;2.380;2022-09-03T08:57:18;7.60;;;1.70;;
4208;SDS011;36320;48.860;2.380;2022-09-03T08:59:45;10.80;;;1.70;;
4208;SDS011;36320;48.860;2.380;2022-09-03T09:02:36;10.90;;;1.80;;
4208;SDS011;36320;48.860;2.380;2022-09-03T09:05:24;9.57;;;1.80;;
4208;SDS011;36320;48.860;2.380;2022-09-03T09:10:43;8.20;;;1.83;;
4208;SDS011;36320;48.860;2.380;2022-09-03T09:13:32;7.20;;;1.27;;
4208;SDS011;36320;48.860;2.380;2022-09-03T09:16:21;7.57;;;1.50;;
4208;SDS011;36320;48.860;2.380;2022-09-03T09:20:20;7.30;;;1.40;;
4208;SDS011;36320;48.860;2.380;2022-09-03T09:22:36;8.85;;;1.60;;
4208;SDS011;36320;48.860;2.380;2022-09-03T09:25:08;7.80;;;1.60;;
4208;SDS011;36320;48.860;2.380;2022-09-03T09:27:41;8.70;;;1.90;;
4208;SDS011;36320;48.860;2.380;2022-09-03T09:30:32;8.23;;;1.50;;
4208;SDS011;36320;48.860;2.380;2022-09-03T09:32:57;7.97;;;1.70;;
4208;SDS011;36320;48.860;2.380;2022-09-03T09:35:24;8.80;;;1.80;;
4208;SDS011;36320;48.860;2.380;2022-09-03T09:37:51;9.30;;;1.70;;
4208;SDS011;36320;48.860;2.380;2022-09-03T09:43:02;9.05;;;1.88;;
4208;SDS011;36320;48.860;2.380;2022-09-03T09:45:33;8.45;;;1.90;;
4208;SDS011;36320;48.860;2.380;2022-09-03T09:48:09;10.73;;;2.00;;
4208;SDS011;36320;48.860;2.380;2022-09-03T09:53:42;8.68;;;1.80;;
4208;SDS011;36320;48.860;2.380;2022-09-03T09:56:19;7.40;;;1.60;;
4208;SDS011;36320;48.860;2.380;2022-09-03T09:58:47;8.00;;;1.67;;
4208;SDS011;36320;48.860;2.380;2022-09-03T10:01:17;8.60;;;1.63;;
4208;SDS011;36320;48.860;2.380;2022-09-03T10:03:51;9.50;;;1.70;;
4208;SDS011;36320;48.860;2.380;2022-09-03T10:06:37;9.98;;;2.30;;
4208;SDS011;36320;48.860;2.380;2022-09-03T10:09:19;8.50;;;1.63;;
4208;SDS011;36320;48.860;2.380;2022-09-03T10:14:48;8.20;;;1.92;;
4208;SDS011;36320;48.860;2.380;2022-09-03T10:20:10;13.70;;;1.43;;
4208;SDS011;36320;48.860;2.380;2022-09-03T10:23:39;7.38;;;1.55;;
4208;SDS011;36320;48.860;2.380;2022-09-03T10:28:24;7.85;;;1.50;;
4208;SDS011;36320;48.860;2.380;2022-09-03T10:33:32;10.10;;;1.70;;
4208;SDS011;36320;48.860;2.380;2022-09-03T10:39:23;8.20;;;1.60;;
4208;SDS011;36320;48.860;2.380;2022-09-03T10:42:17;8.32;;;1.73;;
4208;SDS011;36320;48.860;2.380;2022-09-03T10:50:30;7.78;;;1.50;;
4208;SDS011;36320;48.860;2.380;2022-09-03T11:01:26;7.68;;;1.50;;
4208;SDS011;36320;48.860;2.380;2022-09-03T11:07:05;7.10;;;1.40;;
4208;SDS011;36320;48.860;2.380;2022-09-03T11:10:17;7.70;;;1.75;;
4208;SDS011;36320;48.860;2.380;2022-09-03T11:12:49;8.20;;;1.52;;
4208;SDS011;36320;48.860;2.380;2022-09-03T11:15:57;8.10;;;1.92;;
4208;SDS011;36320;48.860;2.380;2022-09-03T11:18:33;11.60;;;1.58;;
4208;SDS011;36320;48.860;2.380;2022-09-03T11:21:08;7.70;;;1.80;;
4208;SDS011;36320;48.860;2.380;2022-09-03T11:23:49;7.80;;;1.57;;
4208;SDS011;36320;48.860;2.380;2022-09-03T11:26:22;7.73;;;1.60;;
4208;SDS011;36320;48.860;2.380;2022-09-03T11:28:56;7.65;;;1.70;;
4208;SDS011;36320;48.860;2.380;2022-09-03T11:32:04;9.23;;;2.10;;
4208;SDS011;36320;48.860;2.380;2022-09-03T11:36:50;9.32;;;1.50;;
4208;SDS011;36320;48.860;2.380;2022-09-03T11:39:18;7.23;;;1.30;;
4208;SDS011;36320;48.860;2.380;2022-09-03T11:41:44;8.52;;;1.38;;
4208;SDS011;36320;48.860;2.380;2022-09-03T11:44:34;7.30;;;1.70;;
4208;SDS011;36320;48.860;2.380;2022-09-03T11:47:42;9.50;;;1.60;;
4208;SDS011;36320;48.860;2.380;2022-09-03T11:50:26;7.40;;;1.50;;
4208;SDS011;36320;48.860;2.380;2022-09-03T11:53:05;6.80;;;1.40;;
4208;SDS011;36320;48.860;2.380;2022-09-03T11:58:45;8.00;;;1.50;;
4208;SDS011;36320;48.860;2.380;2022-09-03T12:01:12;11.13;;;1.90;;
4208;SDS011;36320;48.860;2.380;2022-09-03T12:03:50;9.70;;;1.50;;
4208;SDS011;36320;48.860;2.380;2022-09-03T12:06:28;8.18;;;1.70;;
4208;SDS011;36320;48.860;2.380;2022-09-03T12:12:09;9.23;;;1.65;;
4208;SDS011;36320;48.860;2.380;2022-09-03T12:17:46;6.82;;;1.40;;
4208;SDS011;36320;48.860;2.380;2022-09-03T12:20:38;8.90;;;1.20;;
4208;SDS011;36320;48.860;2.380;2022-09-03T12:23:04;6.72;;;1.20;;
4208;SDS011;36320;48.860;2.380;2022-09-03T12:25:31;8.60;;;1.50;;
4208;SDS011;36320;48.860;2.380;2022-09-03T12:27:57;7.07;;;1.30;;
4208;SDS011;36320;48.860;2.380;2022-09-03T12:30:28;6.90;;;1.30;;
4208;SDS011;36320;48.860;2.380;2022-09-03T12:33:16;8.30;;;1.90;;
4208;SDS011;36320;48.860;2.380;2022-09-03T12:35:41;7.30;;;1.35;;
4208;SDS011;36320;48.860;2.380;2022-09-03T12:38:07;6.90;;;1.30;;
4208;SDS011;36320;48.860;2.380;2022-09-03T12:40:40;6.30;;;1.00;;
4208;SDS011;36320;48.860;2.380;2022-09-03T12:43:14;6.72;;;1.00;;
4208;SDS011;36320;48.860;2.380;2022-09-03T12:45:45;7.80;;;1.00;;
4208;SDS011;36320;48.860;2.380;2022-09-03T12:48:21;8.50;;;1.10;;
4208;SDS011;36320;48.860;2.380;2022-09-03T12:50:48;6.43;;;1.10;;
4208;SDS011;36320;48.860;2.380;2022-09-03T12:53:26;6.70;;;1.10;;
4208;SDS011;36320;48.860;2.380;2022-09-03T12:55:56;8.55;;;1.20;;
4208;SDS011;36320;48.860;2.380;2022-09-03T12:58:43;7.20;;;1.30;;
4208;SDS011;36320;48.860;2.380;2022-09-03T13:01:28;6.93;;;1.25;;
4208;SDS011;36320;48.860;2.380;2022-09-03T13:04:08;6.70;;;1.10;;
4208;SDS011;36320;48.860;2.380;2022-09-03T13:07:43;7.95;;;1.30;;
4208;SDS011;36320;48.860;2.380;2022-09-03T13:09:55;6.40;;;1.10;;
4208;SDS011;36320;48.860;2.380;2022-09-03T13:12:32;7.35;;;1.17;;
4208;SDS011;36320;48.860;2.380;2022-09-03T13:15:07;6.95;;;1.13;;
4208;SDS011;36320;48.860;2.380;2022-09-03T13:22:43;14.63;;;1.80;;
4208;SDS011;36320;48.860;2.380;2022-09-03T13:33:42;9.60;;;1.42;;
4208;SDS011;36320;48.860;2.380;2022-09-03T13:36:13;6.40;;;1.10;;
4208;SDS011;36320;48.860;2.380;2022-09-03T13:51:08;8.80;;;1.17;;
4208;SDS011;36320;48.860;2.380;2022-09-03T13:53:41;8.63;;;1.20;;
4208;SDS011;36320;48.860;2.380;2022-09-03T13:56:18;6.68;;;1.10;;
4208;SDS011;36320;48.860;2.380;2022-09-03T13:59:06;7.60;;;1.17;;
4208;SDS011;36320;48.860;2.380;2022-09-03T14:04:27;6.40;;;0.93;;
4208;SDS011;36320;48.860;2.380;2022-09-03T14:07:20;6.20;;;0.90;;
4208;SDS011;36320;48.860;2.380;2022-09-03T14:09:57;6.10;;;0.80;;
4208;SDS011;36320;48.860;2.380;2022-09-03T14:12:54;6.50;;;0.93;;
4208;SDS011;36320;48.860;2.380;2022-09-03T14:15:59;7.03;;;1.02;;
4208;SDS011;36320;48.860;2.380;2022-09-03T14:21:20;6.30;;;0.90;;
4208;SDS011;36320;48.860;2.380;2022-09-03T14:26:26;6.40;;;1.00;;
4208;SDS011;36320;48.860;2.380;2022-09-03T14:29:01;7.03;;;1.20;;
4208;SDS011;36320;48.860;2.380;2022-09-03T14:32:01;7.15;;;1.35;;
4208;SDS011;36320;48.860;2.380;2022-09-03T14:34:51;7.80;;;1.50;;
4208;SDS011;36320;48.860;2.380;2022-09-03T14:38:04;6.40;;;1.20;;
4208;SDS011;36320;48.860;2.380;2022-09-03T14:43:16;6.90;;;1.20;;
4208;SDS011;36320;48.860;2.380;2022-09-03T15:03:05;6.80;;;1.10;;
4208;SDS011;36320;48.860;2.380;2022-09-03T15:12:24;6.43;;;1.10;;
4208;SDS011;36320;48.860;2.380;2022-09-03T15:17:54;9.30;;;1.30;;
4208;SDS011;36320;48.860;2.380;2022-09-03T15:23:10;6.70;;;1.20;;
4208;SDS011;36320;48.860;2.380;2022-09-03T15:26:09;7.80;;;1.20;;
4208;SDS011;36320;48.860;2.380;2022-09-03T15:31:52;8.40;;;1.80;;
4208;SDS011;36320;48.860;2.380;2022-09-03T15:42:45;7.47;;;1.67;;
4208;SDS011;36320;48.860;2.380;2022-09-03T15:45:19;7.40;;;1.50;;
4208;SDS011;36320;48.860;2.380;2022-09-03T15:48:00;6.70;;;1.20;;
4208;SDS011;36320;48.860;2.380;2022-09-03T15:50:51;10.38;;;1.70;;
4208;SDS011;36320;48.860;2.380;2022-09-03T15:56:01;8.50;;;1.50;;
4208;SDS011;36320;48.860;2.380;2022-09-03T15:58:36;7.93;;;1.83;;
4208;SDS011;36320;48.860;2.380;2022-09-03T16:01:24;8.37;;;1.50;;
4208;SDS011;36320;48.860;2.380;2022-09-03T16:06:57;7.88;;;1.70;;
4208;SDS011;36320;48.860;2.380;2022-09-03T16:17:35;9.18;;;1.92;;
4208;SDS011;36320;48.860;2.380;2022-09-03T16:26:02;6.93;;;1.48;;
4208;SDS011;36320;48.860;2.380;2022-09-03T16:28:35;7.80;;;1.58;;
4208;SDS011;36320;48.860;2.380;2022-09-03T16:31:07;6.50;;;1.33;;
4208;SDS011;36320;48.860;2.380;2022-09-03T16:33:46;7.00;;;1.30;;
4208;SDS011;36320;48.860;2.380;2022-09-03T16:36:40;6.30;;;1.30;;
4208;SDS011;36320;48.860;2.380;2022-09-03T16:50:43;9.10;;;1.60;;
4208;SDS011;36320;48.860;2.380;2022-09-03T17:09:57;7.83;;;1.60;;
4208;SDS011;36320;48.860;2.380;2022-09-03T17:12:51;9.02;;;1.50;;
4208;SDS011;36320;48.860;2.380;2022-09-03T17:26:53;8.52;;;1.42;;
4208;SDS011;36320;48.860;2.380;2022-09-03T17:41:15;8.80;;;1.90;;
4208;SDS011;36320;48.860;2.380;2022-09-03T17:52:48;10.05;;;2.33;;
4208;SDS011;36320;48.860;2.380;2022-09-03T17:57:53;9.30;;;2.00;;
4208;SDS011;36320;48.860;2.380;2022-09-03T18:00:37;8.25;;;2.05;;
4208;SDS011;36320;48.860;2.380;2022-09-03T18:03:31;7.60;;;1.70;;
4208;SDS011;36320;48.860;2.380;2022-09-03T18:06:02;9.88;;;1.80;;
4208;SDS011;36320;48.860;2.380;2022-09-03T18:08:32;7.93;;;1.80;;
4208;SDS011;36320;48.860;2.380;2022-09-03T18:16:17;8.07;;;1.70;;
4208;SDS011;36320;48.860;2.380;2022-09-03T18:18:50;11.68;;;2.40;;
4208;SDS011;36320;48.860;2.380;2022-09-03T18:21:21;7.70;;;1.90;;
4208;SDS011;36320;48.860;2.380;2022-09-03T18:27:35;10.50;;;2.00;;
4208;SDS011;36320;48.860;2.380;2022-09-03T18:30:24;10.00;;;2.63;;
4208;SDS011;36320;48.860;2.380;2022-09-03T18:33:09;8.10;;;1.80;;
4208;SDS011;36320;48.860;2.380;2022-09-03T18:35:53;8.70;;;1.90;;
4208;SDS011;36320;48.860;2.380;2022-09-03T18:38:40;9.07;;;2.30;;
4208;SDS011;36320;48.860;2.380;2022-09-03T18:51:23;10.30;;;2.15;;
4208;SDS011;36320;48.860;2.380;2022-09-03T18:54:26;8.75;;;2.13;;
4208;SDS011;36320;48.860;2.380;2022-09-03T19:00:55;10.90;;;2.50;;
4208;SDS011;36320;48.860;2.380;2022-09-03T19:03:49;9.23;;;2.60;;
4208;SDS011;36320;48.860;2.380;2022-09-03T19:06:47;12.05;;;3.17;;
4208;SDS011;36320;48.860;2.380;2022-09-03T19:13:03;12.02;;;2.92;;
4208;SDS011;36320;48.860;2.380;2022-09-03T19:16:16;12.05;;;3.42;;
4208;SDS011;36320;48.860;2.380;2022-09-03T19:19:44;10.32;;;2.60;;
4208;SDS011;36320;48.860;2.380;2022-09-03T19:22:44;12.13;;;2.90;;
4208;SDS011;36320;48.860;2.380;2022-09-03T19:25:29;12.57;;;3.20;;
4208;SDS011;36320;48.860;2.380;2022-09-03T19:28:15;12.57;;;2.70;;
4208;SDS011;36320;48.860;2.380;2022-09-03T19:43:34;10.57;;;2.53;;
4208;SDS011;36320;48.860;2.380;2022-09-03T19:55:46;9.27;;;2.78;;
4208;SDS011;36320;48.860;2.380;2022-09-03T19:58:35;10.85;;;3.17;;
4208;SDS011;36320;48.860;2.380;2022-09-03T20:01:24;11.25;;;3.10;;
4208;SDS011;36320;48.860;2.380;2022-09-03T20:04:15;11.70;;;2.60;;
4208;SDS011;36320;48.860;2.380;2022-09-03T20:06:59;10.38;;;2.70;;
4208;SDS011;36320;48.860;2.380;2022-09-03T20:09:47;13.07;;;2.90;;
4208;SDS011;36320;48.860;2.380;2022-09-03T20:12:34;10.25;;;2.60;;
4208;SDS011;36320;48.860;2.380;2022-09-03T20:15:04;11.73;;;3.20;;
4208;SDS011;36320;48.860;2.380;2022-09-03T20:20:15;12.00;;;3.20;;
4208;SDS011;36320;48.860;2.380;2022-09-03T20:22:51;12.90;;;3.20;;
4208;SDS011;36320;48.860;2.380;2022-09-03T20:28:19;10.90;;;2.90;;
4208;SDS011;36320;48.860;2.380;2022-09-03T20:31:04;10.82;;;3.00;;
4208;SDS011;36320;48.860;2.380;2022-09-03T20:33:59;12.63;;;3.45;;
4208;SDS011;36320;48.860;2.380;2022-09-03T20:42:17;11.30;;;2.90;;
4208;SDS011;36320;48.860;2.380;2022-09-03T20:55:35;12.90;;;3.55;;
4208;SDS011;36320;48.860;2.380;2022-09-03T21:01:09;12.52;;;3.13;;
4208;SDS011;36320;48.860;2.380;2022-09-03T21:23:24;15.32;;;4.65;;
4208;SDS011;36320;48.860;2.380;2022-09-03T21:31:34;18.65;;;4.40;;
4208;SDS011;36320;48.860;2.380;2022-09-03T21:34:14;12.90;;;3.53;;
4208;SDS011;36320;48.860;2.380;2022-09-03T21:36:49;13.18;;;3.50;;
4208;SDS011;36320;48.860;2.380;2022-09-03T21:39:26;11.00;;;3.53;;
4208;SDS011;36320;48.860;2.380;2022-09-03T21:47:15;10.77;;;3.00;;
4208;SDS011;36320;48.860;2.380;2022-09-03T21:52:54;13.40;;;3.47;;
4208;SDS011;36320;48.860;2.380;2022-09-03T21:58:31;9.37;;;2.60;;
4208;SDS011;36320;48.860;2.380;2022-09-03T22:01:30;8.98;;;2.40;;
4208;SDS011;36320;48.860;2.380;2022-09-03T22:04:15;9.93;;;2.67;;